Observation data for Amherst on 01/12/2018      Previous  Date  Next       Current Mesonet Observations  Soil Data  Daily Summary Page  Observations in Plain Language
KAMH 120600Z 06003KT M03/M11 A3026 RMK A01 T10301105  RH  056%=      5-min Rain = 0
KAMH 120605Z 07003KT M03/M11 A3026 RMK A01 T10311106  RH  056%=      5-min Rain = 0
KAMH 120610Z 08002KT M03/M11 A3026 RMK A01 T10331106  RH  057%=      5-min Rain = 0
KAMH 120615Z 07002KT M03/M11 A3026 RMK A01 T10341105  RH  057%=      5-min Rain = 0
KAMH 120620Z 10002KT M03/M10 A3025 RMK A01 T10331103  RH  058%=      5-min Rain = 0
KAMH 120625Z 11002KT M03/M11 A3025 RMK A01 T10341105  RH  058%=      5-min Rain = 0
KAMH 120630Z 10003KT M04/M10 A3025 RMK A01 T10361104  RH  059%=      5-min Rain = 0
KAMH 120635Z 11003KT M04/M10 A3025 RMK A01 T10361103  RH  059%=      5-min Rain = 0
KAMH 120640Z 10003KT M04/M10 A3025 RMK A01 T10351103  RH  059%=      5-min Rain = 0
KAMH 120645Z 12003KT M04/M10 A3025 RMK A01 T10351103  RH  059%=      5-min Rain = 0
KAMH 120650Z 13002KT M04/M10 A3024 RMK A01 T10351104  RH  058%=      5-min Rain = 0
KAMH 120655Z 14002KT M04/M11 A3024 RMK A01 T10361105  RH  059%=      5-min Rain = 0
KAMH 120700Z 14003KT M04/M11 A3024 RMK A01 T10381106  RH  059%=      5-min Rain = 0
KAMH 120705Z 15003KT M04/M11 A3024 RMK A01 T10381106  RH  059%=      5-min Rain = 0
KAMH 120710Z 15003KT M04/M11 A3024 RMK A01 T10391107  RH  059%=      5-min Rain = 0
KAMH 120715Z 16004KT M04/M11 A3024 RMK A01 T10391105  RH  060%=      5-min Rain = 0
KAMH 120720Z 17004KT M04/M11 A3024 RMK A01 T10391105  RH  060%=      5-min Rain = 0
KAMH 120725Z 18004KT M04/M11 A3024 RMK A01 T10401105  RH  060%=      5-min Rain = 0
KAMH 120730Z 19004KT M04/M10 A3024 RMK A01 T10391104  RH  060%=      5-min Rain = 0
KAMH 120735Z 20004KT M04/M11 A3024 RMK A01 T10381105  RH  059%=      5-min Rain = 0
KAMH 120740Z 20004KT M04/M11 A3024 RMK A01 T10391107  RH  059%=      5-min Rain = 0
KAMH 120745Z 21004KT M04/M11 A3024 RMK A01 T10431109  RH  060%=      5-min Rain = 0
KAMH 120750Z 20003KT M05/M11 A3024 RMK A01 T10471110  RH  061%=      5-min Rain = 0
KAMH 120755Z 20004KT M05/M11 A3024 RMK A01 T10491112  RH  061%=      5-min Rain = 0
KAMH 120800Z 20005KT M05/M11 A3024 RMK A01 T10501109  RH  063%=      5-min Rain = 0
KAMH 120805Z 21005KT M05/M11 A3024 RMK A01 T10481108  RH  062%=      5-min Rain = 0
KAMH 120810Z 22005KT M05/M11 A3024 RMK A01 T10471110  RH  061%=      5-min Rain = 0
KAMH 120815Z 21004KT M05/M11 A3024 RMK A01 T10471110  RH  061%=      5-min Rain = 0
KAMH 120820Z 21003KT M05/M11 A3024 RMK A01 T10491111  RH  061%=      5-min Rain = 0
KAMH 120825Z 21003KT M05/M11 A3024 RMK A01 T10501111  RH  062%=      5-min Rain = 0
KAMH 120830Z 20004KT M05/M11 A3024 RMK A01 T10511112  RH  062%=      5-min Rain = 0
KAMH 120835Z 20005KT M05/M11 A3024 RMK A01 T10541113  RH  063%=      5-min Rain = 0
KAMH 120840Z 20005KT M06/M11 A3024 RMK A01 T10581109  RH  067%=      5-min Rain = 0
KAMH 120845Z 21005KT M05/M11 A3024 RMK A01 T10541106  RH  066%=      5-min Rain = 0
KAMH 120850Z 20004KT M05/M11 A3024 RMK A01 T10491107  RH  063%=      5-min Rain = 0
KAMH 120855Z 20003KT M05/M11 A3024 RMK A01 T10481109  RH  062%=      5-min Rain = 0
KAMH 120900Z 20003KT M05/M11 A3023 RMK A01 T10491109  RH  062%=      5-min Rain = 0
KAMH 120905Z 20003KT M05/M11 A3023 RMK A01 T10521113  RH  062%=      5-min Rain = 0
KAMH 120910Z 20004KT M06/M11 A3023 RMK A01 T10561111  RH  065%=      5-min Rain = 0
KAMH 120915Z 20005KT M05/M11 A3022 RMK A01 T10541106  RH  067%=      5-min Rain = 0
KAMH 120920Z 20006KT M05/M11 A3022 RMK A01 T10511105  RH  065%=      5-min Rain = 0
KAMH 120925Z 20006KT M05/M10 A3022 RMK A01 T10451102  RH  064%=      5-min Rain = 0
KAMH 120930Z 20005KT M04/M10 A3021 RMK A01 T10411101  RH  063%=      5-min Rain = 0
KAMH 120935Z 20005KT M04/M10 A3021 RMK A01 T10401101  RH  062%=      5-min Rain = 0
KAMH 120940Z 20005KT M04/M10 A3021 RMK A01 T10401103  RH  061%=      5-min Rain = 0
KAMH 120945Z 20005KT M04/M10 A3021 RMK A01 T10411103  RH  062%=      5-min Rain = 0
KAMH 120950Z 20006KT M04/M10 A302 RMK A01 T10411104  RH  061%=      5-min Rain = 0
KAMH 120955Z 19005KT M04/M10 A302 RMK A01 T10411104  RH  061%=      5-min Rain = 0
KAMH 121000Z 20005KT M04/M11 A302 RMK A01 T10431105  RH  062%=      5-min Rain = 0
KAMH 121005Z 20005KT M04/M10 A3021 RMK A01 T10421103  RH  062%=      5-min Rain = 0
KAMH 121010Z 21005KT M04/M10 A3021 RMK A01 T10411104  RH  061%=      5-min Rain = 0
KAMH 121015Z 23006KT M05/M11 A3022 RMK A01 T10451110  RH  060%=      5-min Rain = 0
KAMH 121020Z 23007KT M05/M11 A3021 RMK A01 T10491110  RH  062%=      5-min Rain = 0
KAMH 121025Z 23006KT M05/M11 A3021 RMK A01 T10511111  RH  063%=      5-min Rain = 0
KAMH 121030Z 24006KT M05/M11 A3021 RMK A01 T10531112  RH  063%=      5-min Rain = 0
KAMH 121035Z 24007KT M06/M11 A3021 RMK A01 T10551112  RH  064%=      5-min Rain = 0
KAMH 121040Z 23007KT M06/M11 A3021 RMK A01 T10571113  RH  064%=      5-min Rain = 0
KAMH 121045Z 23006KT M06/M11 A3021 RMK A01 T10591114  RH  065%=      5-min Rain = 0
KAMH 121050Z 22006KT M06/M11 A3021 RMK A01 T10601113  RH  065%=      5-min Rain = 0
KAMH 121055Z 22006KT M06/M11 A3021 RMK A01 T10591113  RH  066%=      5-min Rain = 0
KAMH 121100Z 21006KT M06/M11 A302 RMK A01 T10571112  RH  065%=      5-min Rain = 0
KAMH 121105Z 21005KT M06/M11 A302 RMK A01 T10551110  RH  065%=      5-min Rain = 0
KAMH 121110Z 20005KT M06/M11 A302 RMK A01 T10551111  RH  064%=      5-min Rain = 0
KAMH 121115Z 20004KT M06/M11 A302 RMK A01 T10551112  RH  064%=      5-min Rain = 0
KAMH 121120Z 20004KT M06/M12 A3019 RMK A01 T10611118  RH  064%=      5-min Rain = 0
KAMH 121125Z 20005KT M07/M12 A3019 RMK A01 T10671118  RH  066%=      5-min Rain = 0
KAMH 121130Z 19006KT M07/M12 A3019 RMK A01 T10691118  RH  068%=      5-min Rain = 0
KAMH 121135Z 20008KT M06/M11 A3019 RMK A01 T10581106  RH  068%=      5-min Rain = 0
KAMH 121140Z 20008KT M05/M11 A3019 RMK A01 T10481106  RH  063%=      5-min Rain = 0
KAMH 121145Z 20007KT M05/M11 A3019 RMK A01 T10461107  RH  062%=      5-min Rain = 0
KAMH 121150Z 20007KT M05/M11 A3019 RMK A01 T10461108  RH  062%=      5-min Rain = 0
KAMH 121155Z 20007KT M05/M11 A3019 RMK A01 T10471108  RH  062%=      5-min Rain = 0
KAMH 121200Z 20007KT M05/M11 A3019 RMK A01 T10461108  RH  062%=      5-min Rain = 0
KAMH 121205Z 21007KT M05/M11 A3019 RMK A01 T10471109  RH  062%=      5-min Rain = 0
KAMH 121210Z 21008KT M05/M11 A3019 RMK A01 T10471109  RH  061%=      5-min Rain = 0
KAMH 121215Z 21006KT M05/M11 A302 RMK A01 T10471110  RH  061%=      5-min Rain = 0
KAMH 121220Z 21006KT M05/M11 A302 RMK A01 T10491110  RH  062%=      5-min Rain = 0
KAMH 121225Z 21006KT M05/M11 A302 RMK A01 T10491110  RH  062%=      5-min Rain = 0
KAMH 121230Z 21006KT M05/M11 A302 RMK A01 T10501110  RH  062%=      5-min Rain = 0
KAMH 121235Z 21005KT M05/M11 A302 RMK A01 T10511111  RH  063%=      5-min Rain = 0
KAMH 121240Z 20005KT M05/M11 A302 RMK A01 T10521111  RH  063%=      5-min Rain = 0
KAMH 121245Z 19005KT M05/M11 A302 RMK A01 T10541111  RH  064%=      5-min Rain = 0
KAMH 121250Z 20006KT M06/M11 A302 RMK A01 T10551111  RH  065%=      5-min Rain = 0
KAMH 121255Z 20007KT M05/M11 A302 RMK A01 T10531109  RH  064%=      5-min Rain = 0
KAMH 121300Z 20008KT M05/M11 A302 RMK A01 T10501108  RH  063%=      5-min Rain = 0
KAMH 121305Z 21007KT M05/M11 A302 RMK A01 T10491108  RH  063%=      5-min Rain = 0
KAMH 121310Z 21007KT M05/M11 A302 RMK A01 T10481109  RH  062%=      5-min Rain = 0
KAMH 121315Z 21006KT M05/M11 A3021 RMK A01 T10481109  RH  062%=      5-min Rain = 0
KAMH 121320Z 20007KT M05/M11 A302 RMK A01 T10481110  RH  062%=      5-min Rain = 0
KAMH 121325Z 21008KT M05/M11 A302 RMK A01 T10471108  RH  062%=      5-min Rain = 0
KAMH 121330Z 22008KT M04/M11 A302 RMK A01 T10441109  RH  060%=      5-min Rain = 0
KAMH 121335Z 21006KT M05/M11 A302 RMK A01 T10471111  RH  061%=      5-min Rain = 0
KAMH 121340Z 20005KT M05/M11 A302 RMK A01 T10501113  RH  061%=      5-min Rain = 0
KAMH 121345Z 20004KT M05/M11 A302 RMK A01 T10531113  RH  062%=      5-min Rain = 0
KAMH 121350Z 20004KT M05/M11 A302 RMK A01 T10541113  RH  063%=      5-min Rain = 0
KAMH 121355Z 19003KT M06/M12 A302 RMK A01 T10561115  RH  063%=      5-min Rain = 0
KAMH 121400Z 19003KT M06/M12 A302 RMK A01 T10621120  RH  063%=      5-min Rain = 0
KAMH 121405Z 19005KT M07/M12 A302 RMK A01 T10651116  RH  066%=      5-min Rain = 0
KAMH 121410Z 19006KT M06/M11 A302 RMK A01 T10601111  RH  067%=      5-min Rain = 0
KAMH 121415Z 19006KT M06/M11 A302 RMK A01 T10561110  RH  066%=      5-min Rain = 0
KAMH 121420Z 19005KT M05/M11 A3021 RMK A01 T10531108  RH  065%=      5-min Rain = 0
KAMH 121425Z 18004KT M05/M11 A3021 RMK A01 T10501108  RH  064%=      5-min Rain = 0
KAMH 121430Z 18005KT M05/M11 A3021 RMK A01 T10491109  RH  063%=      5-min Rain = 0
KAMH 121435Z 18004KT M05/M11 A3021 RMK A01 T10491109  RH  063%=      5-min Rain = 0
KAMH 121440Z 18005KT M05/M11 A3021 RMK A01 T10451106  RH  062%=      5-min Rain = 0
KAMH 121445Z 17004KT M04/M10 A3022 RMK A01 T10401104  RH  061%=      5-min Rain = 0
KAMH 121450Z 17004KT M04/M10 A3022 RMK A01 T10361104  RH  059%=      5-min Rain = 0
KAMH 121455Z 18005KT M03/M10 A3022 RMK A01 T10321103  RH  058%=      5-min Rain = 0
KAMH 121500Z 17006KT M03/M10 A3022 RMK A01 T10291103  RH  056%=      5-min Rain = 0
KAMH 121505Z 15005KT M03/M10 A3023 RMK A01 T10251100  RH  056%=      5-min Rain = 0
KAMH 121510Z 14005KT M02/M10 A3023 RMK A01 T10221098  RH  056%=      5-min Rain = 0
KAMH 121515Z 16007KT M02/M10 A3023 RMK A01 T10211099  RH  055%=      5-min Rain = 0
KAMH 121520Z 17008KT M02/M10 A3023 RMK A01 T10191100  RH  054%=      5-min Rain = 0
KAMH 121525Z 16009KT M02/M10 A3023 RMK A01 T10151099  RH  053%=      5-min Rain = 0
KAMH 121530Z 17009KT M01/M10 A3023 RMK A01 T10141101  RH  051%=      5-min Rain = 0
KAMH 121535Z 17009KT M01/M10 A3023 RMK A01 T10121101  RH  051%=      5-min Rain = 0
KAMH 121540Z 17008KT M01/M10 A3023 RMK A01 T10081099  RH  050%=      5-min Rain = 0
KAMH 121545Z 17011KT M00/M10 A3022 RMK A01 T10031100  RH  048%=      5-min Rain = 0
KAMH 121550Z 18011G16KT M00/M10 A3022 RMK A01 T10031101  RH  047%=      5-min Rain = 0
KAMH 121555Z 17011G16KT M00/M10 A3022 RMK A01 T10011100  RH  047%=      5-min Rain = 0
KAMH 121600Z 17013KT 00/M10 A3022 RMK A01 T00011101  RH  046%=      5-min Rain = 0
KAMH 121605Z 17012KT 00/M10 A3022 RMK A01 T00031101  RH  046%=      5-min Rain = 0
KAMH 121610Z 17014KT 00/M10 A3022 RMK A01 T00041102  RH  045%=      5-min Rain = 0
KAMH 121615Z 17013G18KT 01/M10 A3022 RMK A01 T00061101  RH  044%=      5-min Rain = 0
KAMH 121620Z 18013KT 01/M10 A3022 RMK A01 T00071102  RH  044%=      5-min Rain = 0
KAMH 121625Z 18013KT 01/M10 A3021 RMK A01 T00071101  RH  044%=      5-min Rain = 0
KAMH 121630Z 18015G20KT 01/M10 A3021 RMK A01 T00111101  RH  043%=      5-min Rain = 0
KAMH 121635Z 18015G22KT 02/M10 A3021 RMK A01 T00171101  RH  041%=      5-min Rain = 0
KAMH 121640Z 18016G22KT 02/M10 A3021 RMK A01 T00201102  RH  040%=      5-min Rain = 0
KAMH 121645Z 18015G20KT 02/M10 A302 RMK A01 T00231102  RH  039%=      5-min Rain = 0
KAMH 121650Z 18018G24KT 03/M10 A302 RMK A01 T00251104  RH  038%=      5-min Rain = 0
KAMH 121655Z 19018KT 03/M11 A3019 RMK A01 T00251106  RH  037%=      5-min Rain = 0
KAMH 121700Z 19019G24KT 03/M11 A3019 RMK A01 T00251107  RH  037%=      5-min Rain = 0
KAMH 121705Z 18018G24KT 03/M11 A3018 RMK A01 T00271106  RH  037%=      5-min Rain = 0
KAMH 121710Z 18016G21KT 03/M11 A3018 RMK A01 T00321105  RH  036%=      5-min Rain = 0
KAMH 121715Z 18017G23KT 04/M11 A3018 RMK A01 T00371105  RH  034%=      5-min Rain = 0
KAMH 121720Z 18019G25KT 04/M11 A3017 RMK A01 T00381107  RH  034%=      5-min Rain = 0
KAMH 121725Z 18019G25KT 04/M11 A3016 RMK A01 T00411107  RH  033%=      5-min Rain = 0
KAMH 121730Z 18018G24KT 04/M11 A3016 RMK A01 T00411106  RH  033%=      5-min Rain = 0
KAMH 121735Z 18012G18KT 05/M11 A3019 RMK A01 T00461105  RH  032%=      5-min Rain = 0
KAMH 121740Z 17012KT 05/M11 A302 RMK A01 T00491105  RH  032%=      5-min Rain = 0
KAMH 121745Z 18013KT 05/M11 A3019 RMK A01 T00521105  RH  031%=      5-min Rain = 0
KAMH 121750Z 17013KT 05/M11 A3019 RMK A01 T00531105  RH  031%=      5-min Rain = 0
KAMH 121755Z 18013KT 06/M10 A3018 RMK A01 T00581104  RH  030%=      5-min Rain = 0
KAMH 121800Z 18012G18KT 06/M10 A3017 RMK A01 T00641103  RH  029%=      5-min Rain = 0
KAMH 121805Z 18014G19KT 06/M10 A3017 RMK A01 T00621104  RH  029%=      5-min Rain = 0
KAMH 121810Z 18014G19KT 06/M10 A3017 RMK A01 T00621104  RH  029%=      5-min Rain = 0
KAMH 121815Z 18014G21KT 06/M10 A3016 RMK A01 T00641103  RH  029%=      5-min Rain = 0
KAMH 121820Z 18013KT 07/M10 A3015 RMK A01 T00671102  RH  029%=      5-min Rain = 0
KAMH 121825Z 19013G18KT 07/M10 A3015 RMK A01 T00701101  RH  028%=      5-min Rain = 0
KAMH 121830Z 18014KT 07/M10 A3014 RMK A01 T00721100  RH  028%=      5-min Rain = 0
KAMH 121835Z 18016KT 07/M10 A3013 RMK A01 T00721100  RH  028%=      5-min Rain = 0
KAMH 121840Z 18014G19KT 07/M10 A3013 RMK A01 T00731100  RH  028%=      5-min Rain = 0
KAMH 121845Z 19014G19KT 08/M10 A3013 RMK A01 T00751099  RH  028%=      5-min Rain = 0
KAMH 121850Z 20013G18KT 08/M10 A3013 RMK A01 T00761097  RH  028%=      5-min Rain = 0
KAMH 121855Z 19013G18KT 08/M10 A3012 RMK A01 T00781096  RH  028%=      5-min Rain = 0
KAMH 121900Z 19012G17KT 08/M10 A3012 RMK A01 T00821095  RH  027%=      5-min Rain = 0
KAMH 121905Z 19012G18KT 09/M09 A3011 RMK A01 T00861093  RH  027%=      5-min Rain = 0
KAMH 121910Z 19014KT 09/M09 A3011 RMK A01 T00851094  RH  027%=      5-min Rain = 0
KAMH 121915Z 19013G19KT 08/M09 A3011 RMK A01 T00831094  RH  027%=      5-min Rain = 0
KAMH 121920Z 18012G19KT 09/M09 A3011 RMK A01 T00861093  RH  027%=      5-min Rain = 0
KAMH 121925Z 19011G19KT 09/M09 A3011 RMK A01 T00881093  RH  027%=      5-min Rain = 0
KAMH 121930Z 17013G18KT 09/M09 A3011 RMK A01 T00891093  RH  027%=      5-min Rain = 0
KAMH 121935Z 19011G16KT 09/M09 A301 RMK A01 T00921092  RH  026%=      5-min Rain = 0
KAMH 121940Z 19011G17KT 09/M09 A301 RMK A01 T00941093  RH  026%=      5-min Rain = 0
KAMH 121945Z 19012G17KT 10/M09 A301 RMK A01 T00951093  RH  026%=      5-min Rain = 0
KAMH 121950Z 19013G18KT 10/M09 A3009 RMK A01 T00951092  RH  026%=      5-min Rain = 0
KAMH 121955Z 19015G20KT 10/M09 A3008 RMK A01 T00971092  RH  025%=      5-min Rain = 0
KAMH 122000Z 19011KT 10/M09 A3008 RMK A01 T00981090  RH  026%=      5-min Rain = 0
KAMH 122005Z 19012G18KT 10/M09 A3008 RMK A01 T01001091  RH  025%=      5-min Rain = 0
KAMH 122010Z 18012KT 10/M09 A3008 RMK A01 T01031090  RH  025%=      5-min Rain = 0
KAMH 122015Z 17013G20KT 10/M09 A3008 RMK A01 T01041091  RH  024%=      5-min Rain = 0
KAMH 122020Z 18013KT 11/M09 A3007 RMK A01 T01051090  RH  024%=      5-min Rain = 0
KAMH 122025Z 18012KT 11/M09 A3007 RMK A01 T01081088  RH  024%=      5-min Rain = 0
KAMH 122030Z 17015KT 11/M09 A3007 RMK A01 T01091090  RH  024%=      5-min Rain = 0
KAMH 122035Z 17015KT 11/M09 A3007 RMK A01 T01071091  RH  024%=      5-min Rain = 0
KAMH 122040Z 17014KT 11/M09 A3007 RMK A01 T01081090  RH  024%=      5-min Rain = 0
KAMH 122045Z 17012G18KT 11/M09 A3007 RMK A01 T01121089  RH  023%=      5-min Rain = 0
KAMH 122050Z 16013G19KT 11/M09 A3007 RMK A01 T01131090  RH  023%=      5-min Rain = 0
KAMH 122055Z 16013KT 12/M09 A3007 RMK A01 T01151090  RH  023%=      5-min Rain = 0
KAMH 122100Z 17014G19KT 12/M09 A3006 RMK A01 T01161088  RH  023%=      5-min Rain = 0
KAMH 122105Z 17014KT 12/M09 A3007 RMK A01 T01181086  RH  023%=      5-min Rain = 0
KAMH 122110Z 18011KT 12/M09 A3006 RMK A01 T01201085  RH  023%=      5-min Rain = 0
KAMH 122115Z 17013KT 12/M09 A3007 RMK A01 T01211085  RH  023%=      5-min Rain = 0
KAMH 122120Z 17013G18KT 12/M09 A3006 RMK A01 T01241085  RH  022%=      5-min Rain = 0
KAMH 122125Z 16013G18KT 12/M09 A3006 RMK A01 T01231087  RH  022%=      5-min Rain = 0
KAMH 122130Z 17013KT 12/M09 A3006 RMK A01 T01211087  RH  022%=      5-min Rain = 0
KAMH 122135Z 17012G17KT 12/M09 A3006 RMK A01 T01221087  RH  022%=      5-min Rain = 0
KAMH 122140Z 15013KT 12/M09 A3006 RMK A01 T01241088  RH  022%=      5-min Rain = 0
KAMH 122145Z 16014KT 12/M09 A3006 RMK A01 T01231089  RH  022%=      5-min Rain = 0
KAMH 122150Z 16014G19KT 12/M09 A3006 RMK A01 T01231089  RH  022%=      5-min Rain = 0
KAMH 122155Z 15014KT 12/M09 A3006 RMK A01 T01221089  RH  022%=      5-min Rain = 0
KAMH 122200Z 15014KT 12/M09 A3006 RMK A01 T01221089  RH  022%=      5-min Rain = 0
KAMH 122205Z 15014KT 12/M09 A3006 RMK A01 T01211091  RH  022%=      5-min Rain = 0
KAMH 122210Z 15013KT 12/M09 A3006 RMK A01 T01201090  RH  022%=      5-min Rain = 0
KAMH 122215Z 16014KT 12/M09 A3006 RMK A01 T01211090  RH  022%=      5-min Rain = 0
KAMH 122220Z 15012G18KT 12/M09 A3007 RMK A01 T01211089  RH  022%=      5-min Rain = 0
KAMH 122225Z 15012KT 12/M09 A3007 RMK A01 T01191090  RH  022%=      5-min Rain = 0
KAMH 122230Z 15013G18KT 12/M09 A3007 RMK A01 T01171091  RH  022%=      5-min Rain = 0
KAMH 122235Z 15013G18KT 12/M09 A3007 RMK A01 T01151092  RH  023%=      5-min Rain = 0
KAMH 122240Z 15012KT 11/M09 A3008 RMK A01 T01141091  RH  023%=      5-min Rain = 0
KAMH 122245Z 15013G19KT 12/M09 A3008 RMK A01 T01151091  RH  023%=      5-min Rain = 0
KAMH 122250Z 15013KT 11/M09 A3008 RMK A01 T01131092  RH  023%=      5-min Rain = 0
KAMH 122255Z 15013G18KT 11/M09 A3008 RMK A01 T01121092  RH  023%=      5-min Rain = 0
KAMH 122300Z 15012KT 11/M09 A3008 RMK A01 T01111092  RH  023%=      5-min Rain = 0
KAMH 122305Z 14014G19KT 11/M09 A3008 RMK A01 T01101092  RH  023%=      5-min Rain = 0
KAMH 122310Z 15013KT 11/M09 A3008 RMK A01 T01081093  RH  023%=      5-min Rain = 0
KAMH 122315Z 15013KT 11/M09 A3008 RMK A01 T01061093  RH  024%=      5-min Rain = 0
KAMH 122320Z 14013KT 10/M10 A3009 RMK A01 T01031095  RH  024%=      5-min Rain = 0
KAMH 122325Z 14012KT 10/M10 A3009 RMK A01 T00991096  RH  024%=      5-min Rain = 0
KAMH 122330Z 14011KT 10/M10 A3009 RMK A01 T00961096  RH  025%=      5-min Rain = 0
KAMH 122335Z 14010KT 09/M10 A3009 RMK A01 T00941096  RH  025%=      5-min Rain = 0
KAMH 122340Z 14010KT 09/M10 A3009 RMK A01 T00911096  RH  026%=      5-min Rain = 0
KAMH 122345Z 14009KT 09/M10 A301 RMK A01 T00881097  RH  026%=      5-min Rain = 0
KAMH 122350Z 14010KT 09/M10 A301 RMK A01 T00851096  RH  026%=      5-min Rain = 0
KAMH 122355Z 14009KT 08/M10 A301 RMK A01 T00831097  RH  027%=      5-min Rain = 0
KAMH 130000Z 14009KT 08/M10 A301 RMK A01 T00801097  RH  027%=      5-min Rain = 0
KAMH 130005Z 14010KT 08/M10 A301 RMK A01 T00781097  RH  028%=      5-min Rain = 0
KAMH 130010Z 14010KT 08/M10 A301 RMK A01 T00761097  RH  028%=      5-min Rain = 0
KAMH 130015Z 14010KT 07/M10 A301 RMK A01 T00741098  RH  028%=      5-min Rain = 0
KAMH 130020Z 14009KT 07/M10 A3011 RMK A01 T00711098  RH  029%=      5-min Rain = 0
KAMH 130025Z 13009KT 07/M10 A3011 RMK A01 T00671099  RH  029%=      5-min Rain = 0
KAMH 130030Z 13009KT 06/M10 A3011 RMK A01 T00631100  RH  030%=      5-min Rain = 0
KAMH 130035Z 13009KT 06/M10 A3012 RMK A01 T00601100  RH  031%=      5-min Rain = 0
KAMH 130040Z 13009KT 06/M10 A3012 RMK A01 T00561101  RH  031%=      5-min Rain = 0
KAMH 130045Z 13009KT 05/M10 A3013 RMK A01 T00541102  RH  031%=      5-min Rain = 0
KAMH 130050Z 12008KT 05/M10 A3013 RMK A01 T00521101  RH  032%=      5-min Rain = 0
KAMH 130055Z 12008KT 05/M10 A3014 RMK A01 T00471101  RH  033%=      5-min Rain = 0
KAMH 130100Z 12008KT 05/M10 A3015 RMK A01 T00451103  RH  033%=      5-min Rain = 0
KAMH 130105Z 10008KT 04/M10 A3015 RMK A01 T00421101  RH  035%=      5-min Rain = 0
KAMH 130110Z 10008KT 04/M10 A3016 RMK A01 T00351103  RH  035%=      5-min Rain = 0
KAMH 130115Z 11008KT 03/M10 A3016 RMK A01 T00331098  RH  037%=      5-min Rain = 0
KAMH 130120Z 10008KT 04/M10 A3017 RMK A01 T00351096  RH  037%=      5-min Rain = 0
KAMH 130125Z 09008KT 03/M10 A3017 RMK A01 T00331100  RH  037%=      5-min Rain = 0
KAMH 130130Z 10008KT 03/M10 A3018 RMK A01 T00301096  RH  039%=      5-min Rain = 0
KAMH 130135Z 09008KT 03/M10 A3018 RMK A01 T00301095  RH  039%=      5-min Rain = 0
KAMH 130140Z 09008KT 03/M10 A3019 RMK A01 T00301097  RH  039%=      5-min Rain = 0
KAMH 130145Z 09009KT 03/M10 A3019 RMK A01 T00321100  RH  037%=      5-min Rain = 0
KAMH 130150Z 09008KT 04/M10 A302 RMK A01 T00351101  RH  036%=      5-min Rain = 0
KAMH 130155Z 10007KT 04/M10 A302 RMK A01 T00361100  RH  036%=      5-min Rain = 0
KAMH 130200Z 09008KT 03/M10 A302 RMK A01 T00341100  RH  036%=      5-min Rain = 0
KAMH 130205Z 09009KT 04/M10 A3022 RMK A01 T00351101  RH  036%=      5-min Rain = 0
KAMH 130210Z 09010KT 04/M10 A3022 RMK A01 T00391101  RH  035%=      5-min Rain = 0
KAMH 130215Z 09010KT 04/M10 A3023 RMK A01 T00421102  RH  034%=      5-min Rain = 0
KAMH 130220Z 09011KT 04/M10 A3024 RMK A01 T00431104  RH  033%=      5-min Rain = 0
KAMH 130225Z 08010KT 04/M11 A3024 RMK A01 T00441106  RH  032%=      5-min Rain = 0
KAMH 130230Z 09009KT 04/M11 A3025 RMK A01 T00441107  RH  032%=      5-min Rain = 0
KAMH 130235Z 08011KT 04/M11 A3026 RMK A01 T00431108  RH  032%=      5-min Rain = 0
KAMH 130240Z 08010KT 04/M11 A3026 RMK A01 T00431109  RH  032%=      5-min Rain = 0
KAMH 130245Z 08010KT 04/M11 A3027 RMK A01 T00411110  RH  032%=      5-min Rain = 0
KAMH 130250Z 08011G16KT 04/M11 A3027 RMK A01 T00411111  RH  032%=      5-min Rain = 0
KAMH 130255Z 09014KT 04/M11 A3027 RMK A01 T00391113  RH  032%=      5-min Rain = 0
KAMH 130300Z 09012KT 04/M11 A3027 RMK A01 T00371114  RH  032%=      5-min Rain = 0
KAMH 130305Z 09013KT 03/M12 A3028 RMK A01 T00341115  RH  032%=      5-min Rain = 0
KAMH 130310Z 09013G18KT 03/M12 A3029 RMK A01 T00311116  RH  033%=      5-min Rain = 0
KAMH 130315Z 09012KT 03/M12 A303 RMK A01 T00291117  RH  033%=      5-min Rain = 0
KAMH 130320Z 10011G16KT 03/M12 A3029 RMK A01 T00261116  RH  034%=      5-min Rain = 0
KAMH 130325Z 10012KT 03/M11 A303 RMK A01 T00251114  RH  035%=      5-min Rain = 0
KAMH 130330Z 10012KT 02/M12 A303 RMK A01 T00231115  RH  035%=      5-min Rain = 0
KAMH 130335Z 10012KT 02/M11 A303 RMK A01 T00221114  RH  036%=      5-min Rain = 0
KAMH 130340Z 10012KT 02/M12 A303 RMK A01 T00211115  RH  035%=      5-min Rain = 0
KAMH 130345Z 10012KT 02/M12 A3031 RMK A01 T00201118  RH  035%=      5-min Rain = 0
KAMH 130350Z 09010KT 02/M12 A3031 RMK A01 T00191116  RH  036%=      5-min Rain = 0
KAMH 130355Z 09012KT 02/M12 A3032 RMK A01 T00181119  RH  035%=      5-min Rain = 0
KAMH 130400Z 10011G16KT 02/M12 A3032 RMK A01 T00171119  RH  035%=      5-min Rain = 0
KAMH 130405Z 09011KT 02/M12 A3033 RMK A01 T00181120  RH  035%=      5-min Rain = 0
KAMH 130410Z 09011G16KT 02/M12 A3033 RMK A01 T00171121  RH  035%=      5-min Rain = 0
KAMH 130415Z 09012KT 02/M12 A3033 RMK A01 T00151121  RH  035%=      5-min Rain = 0
KAMH 130420Z 09011KT 01/M12 A3034 RMK A01 T00131121  RH  036%=      5-min Rain = 0
KAMH 130425Z 08011KT 01/M12 A3035 RMK A01 T00101124  RH  036%=      5-min Rain = 0
KAMH 130430Z 08010KT 01/M12 A3035 RMK A01 T00071124  RH  037%=      5-min Rain = 0
KAMH 130435Z 07010KT 01/M12 A3035 RMK A01 T00051124  RH  037%=      5-min Rain = 0
KAMH 130440Z 07010KT 00/M12 A3036 RMK A01 T00031123  RH  038%=      5-min Rain = 0
KAMH 130445Z 08010KT 00/M12 A3036 RMK A01 T00011123  RH  038%=      5-min Rain = 0
KAMH 130450Z 09010KT 00/M12 A3036 RMK A01 T00021123  RH  038%=      5-min Rain = 0
KAMH 130455Z 09009KT 00/M12 A3036 RMK A01 T00021121  RH  039%=      5-min Rain = 0
KAMH 130500Z 09009KT 00/M12 A3036 RMK A01 T00021122  RH  039%=      5-min Rain = 0
KAMH 130505Z 09011KT 00/M12 A3037 RMK A01 T00011123  RH  038%=      5-min Rain = 0
KAMH 130510Z 08010KT 00/M12 A3037 RMK A01 T00011124  RH  038%=      5-min Rain = 0
KAMH 130515Z 04010KT 00/12 A3039 RMK A01 T00000-124  RH  038%=      5-min Rain = 0
KAMH 130520Z 07010KT M00/M12 A3039 RMK A01 T10011124  RH  039%=      5-min Rain = 0
KAMH 130525Z 08010KT M00/M13 A3038 RMK A01 T10011126  RH  038%=      5-min Rain = 0
KAMH 130530Z 08009KT M00/M13 A3038 RMK A01 T10021126  RH  038%=      5-min Rain = 0
KAMH 130535Z 09009KT M00/M13 A3038 RMK A01 T10021126  RH  039%=      5-min Rain = 0
KAMH 130540Z 09007KT M00/M13 A3038 RMK A01 T10021125  RH  039%=      5-min Rain = 0
KAMH 130545Z 09005KT M00/M13 A3039 RMK A01 T10031126  RH  039%=      5-min Rain = 0
KAMH 130550Z 10007KT M01/M13 A3039 RMK A01 T10051125  RH  039%=      5-min Rain = 0
KAMH 130555Z 09006KT M01/M13 A3039 RMK A01 T10071126  RH  040%=      5-min Rain = 0

Page generated in 0.0314 seconds.